Time;durP1;ratioP1;P1;durP2;ratioP2;P2;SDS_P1;SDS_P2;PMS_P1;PMS_P2;Temp;Humidity;BMP_temperature;BMP_pressure;BME280_temperature;BME280_humidity;BME280_pressure;Samples;Min_cycle;Max_cycle;Signal;HPM_P1;HPM_P2
2023/11/28 00:00:12;;;;;;;52.70;32.70;;;;;;;1.06;100.00;98419.42;180381;1265;44144;-83
2023/11/28 00:04:34;;;;;;;58.00;33.70;;;;;;;1.09;100.00;98417.99;180522;1265;43910;-84
2023/11/28 00:08:36;;;;;;;59.60;33.00;;;;;;;1.09;100.00;98407.03;180614;1264;44012;-83
2023/11/28 00:12:37;;;;;;;49.90;33.00;;;;;;;1.09;100.00;98408.94;180553;1264;59374;-85
2023/11/28 00:16:39;;;;;;;56.20;34.00;;;;;;;1.07;100.00;98410.11;180321;1266;43953;-84
2023/11/28 00:20:41;;;;;;;56.20;35.20;;;;;;;1.08;100.00;98404.52;180442;1265;44276;-84
2023/11/28 00:24:43;;;;;;;50.00;29.70;;;;;;;1.07;100.00;98405.20;180334;1267;44293;-84
2023/11/28 00:28:45;;;;;;;51.70;34.10;;;;;;;1.09;100.00;98399.87;180347;1264;45815;-84
2023/11/28 00:32:46;;;;;;;68.30;38.60;;;;;;;1.13;100.00;98392.58;180300;1266;59675;-84
2023/11/28 00:36:48;;;;;;;54.00;31.60;;;;;;;1.13;100.00;98389.06;180489;1264;43941;-84
2023/11/28 00:40:50;;;;;;;56.90;37.00;;;;;;;1.14;100.00;98382.77;180381;1265;44096;-84
2023/11/28 00:44:52;;;;;;;57.60;33.00;;;;;;;1.12;100.00;98376.09;180477;1265;43863;-85
2023/11/28 00:48:53;;;;;;;53.10;35.20;;;;;;;1.11;100.00;98372.64;180494;1265;43844;-84
2023/11/28 00:52:55;;;;;;;60.40;32.20;;;;;;;1.12;100.00;98374.18;180219;1265;59439;-84
2023/11/28 00:56:57;;;;;;;60.20;33.90;;;;;;;1.12;100.00;98374.34;180383;1265;44019;-83
2023/11/28 01:00:59;;;;;;;52.20;34.60;;;;;;;1.13;100.00;98368.27;180357;1264;43869;-83
2023/11/28 01:05:00;;;;;;;59.80;38.80;;;;;;;1.13;100.00;98361.31;180509;1264;44119;-83
2023/11/28 01:09:03;;;;;;;57.30;36.60;;;;;;;1.10;100.00;98354.54;180399;1264;44181;-84
2023/11/28 01:13:04;;;;;;;54.80;34.60;;;;;;;1.09;100.00;98346.66;180357;1265;58968;-83
2023/11/28 01:17:07;;;;;;;59.30;37.30;;;;;;;1.03;100.00;98343.20;180376;1265;43856;-84
2023/11/28 01:21:09;;;;;;;60.50;37.80;;;;;;;1.04;100.00;98343.70;180466;1265;44029;-82
2023/11/28 01:25:10;;;;;;;57.20;36.60;;;;;;;1.02;100.00;98339.85;180275;1265;44247;-84
2023/11/28 01:29:12;;;;;;;59.80;35.30;;;;;;;0.96;100.00;98335.84;180490;1265;44031;-83
2023/11/28 01:33:13;;;;;;;59.70;38.30;;;;;;;0.93;100.00;98328.52;180424;1265;59430;-83
2023/11/28 01:37:18;;;;;;;56.60;39.30;;;;;;;0.90;100.00;98325.63;180499;1265;44069;-84
2023/11/28 01:41:19;;;;;;;63.90;38.70;;;;;;;0.87;100.00;98318.86;180492;1265;43977;-83
2023/11/28 01:45:22;;;;;;;70.40;38.70;;;;;;;0.86;100.00;98316.02;180499;1264;43994;-81
2023/11/28 01:49:24;;;;;;;57.10;34.80;;;;;;;0.91;100.00;98308.77;180467;1265;44215;-83
2023/11/28 01:53:27;;;;;;;68.30;38.90;;;;;;;0.91;100.00;98301.14;180426;1265;59366;-82
2023/11/28 01:57:30;;;;;;;66.50;38.00;;;;;;;0.87;100.00;98299.01;180329;1265;44193;-82
2023/11/28 02:01:32;;;;;;;66.10;40.10;;;;;;;0.84;100.00;98299.90;180458;1265;43931;-83
2023/11/28 02:05:35;;;;;;;69.50;40.20;;;;;;;0.83;100.00;98294.73;180557;1265;43874;-83
2023/11/28 02:09:38;;;;;;;71.60;40.00;;;;;;;0.83;100.00;98286.36;180592;1265;43922;-82
2023/11/28 02:13:40;;;;;;;67.20;39.50;;;;;;;0.83;100.00;98278.66;180341;1265;59668;-82
2023/11/28 02:17:42;;;;;;;59.50;41.00;;;;;;;0.83;100.00;98272.44;180527;1264;44191;-82
2023/11/28 02:21:43;;;;;;;62.80;37.30;;;;;;;0.75;100.00;98272.13;180490;1268;44213;-82
2023/11/28 02:25:47;;;;;;;72.80;40.40;;;;;;;0.70;100.00;98271.43;180498;1264;44150;-83
2023/11/28 02:29:49;;;;;;;60.80;41.30;;;;;;;0.69;100.00;98262.94;180364;1265;43842;-82
2023/11/28 02:33:51;;;;;;;61.20;38.70;;;;;;;0.66;100.00;98260.58;180296;1265;58195;-81
2023/11/28 02:37:53;;;;;;;61.90;41.20;;;;;;;0.65;100.00;98259.57;180502;1264;44182;-82
2023/11/28 02:41:55;;;;;;;57.50;35.70;;;;;;;0.59;100.00;98255.29;180464;1265;43794;-83
2023/11/28 02:45:56;;;;;;;60.20;36.30;;;;;;;0.58;100.00;98248.89;180375;1266;43832;-82
2023/11/28 02:49:58;;;;;;;70.30;43.10;;;;;;;0.58;100.00;98241.27;180508;1265;43834;-81
2023/11/28 02:54:00;;;;;;;62.40;43.60;;;;;;;0.55;100.00;98241.95;180294;1266;57904;-83
2023/11/28 02:58:02;;;;;;;56.10;38.70;;;;;;;0.51;100.00;98243.30;180361;1266;44349;-83
2023/11/28 03:02:04;;;;;;;59.30;40.30;;;;;;;0.54;100.00;98228.27;180517;1265;44167;-82
2023/11/28 03:06:06;;;;;;;70.10;39.70;;;;;;;0.54;100.00;98220.45;180538;1264;43996;-83
2023/11/28 03:10:08;;;;;;;65.20;39.70;;;;;;;0.53;100.00;98215.96;180417;1266;44104;-82
2023/11/28 03:14:10;;;;;;;61.00;40.20;;;;;;;0.50;100.00;98212.15;180331;1266;59342;-83
2023/11/28 03:18:11;;;;;;;68.60;38.00;;;;;;;0.45;100.00;98208.67;180298;1265;44145;-83
2023/11/28 03:22:13;;;;;;;60.70;36.70;;;;;;;0.39;100.00;98203.90;180523;1265;44115;-83
2023/11/28 03:26:15;;;;;;;59.10;36.80;;;;;;;0.40;100.00;98202.41;180587;1265;44621;-83
2023/11/28 03:30:17;;;;;;;62.10;34.00;;;;;;;0.44;100.00;98203.88;180426;1265;44575;-82
2023/11/28 03:34:18;;;;;;;57.00;36.90;;;;;;;0.40;100.00;98198.60;180564;1264;58043;-82
2023/11/28 03:38:20;;;;;;;70.50;36.30;;;;;;;0.41;100.00;98193.78;180594;1265;44101;-82
2023/11/28 03:42:21;;;;;;;58.70;32.80;;;;;;;0.36;100.00;98188.03;180538;1265;44085;-83
2023/11/28 03:46:22;;;;;;;54.90;39.10;;;;;;;0.36;100.00;98190.66;180322;1265;43894;-81
2023/11/28 03:50:24;;;;;;;61.40;36.60;;;;;;;0.35;100.00;98189.16;180439;1265;44103;-83
2023/11/28 03:54:26;;;;;;;54.80;32.90;;;;;;;0.32;100.00;98179.47;180378;1265;58059;-83
2023/11/28 03:58:27;;;;;;;51.20;32.60;;;;;;;0.23;100.00;98175.37;180458;1266;45602;-84
2023/11/28 04:02:29;;;;;;;51.70;30.80;;;;;;;0.21;100.00;98175.91;180513;1266;44102;-83
2023/11/28 04:06:30;;;;;;;53.40;31.10;;;;;;;0.17;100.00;98176.38;180447;1265;44107;-83
2023/11/28 04:10:32;;;;;;;42.40;29.90;;;;;;;0.20;100.00;98180.35;180514;1265;44196;-84
2023/11/28 04:14:34;;;;;;;46.80;31.30;;;;;;;0.21;100.00;98170.17;180350;1266;58837;-83
2023/11/28 04:18:35;;;;;;;47.70;31.00;;;;;;;0.20;100.00;98171.31;180565;1265;43855;-84
2023/11/28 04:22:37;;;;;;;51.10;29.70;;;;;;;0.19;100.00;98175.21;180424;1266;43776;-81
2023/11/28 04:26:40;;;;;;;55.40;28.80;;;;;;;0.25;100.00;98182.23;180409;1266;43825;-84
2023/11/28 04:30:42;;;;;;;48.10;27.50;;;;;;;0.25;100.00;98176.48;180514;1264;44033;-80
2023/11/28 04:34:43;;;;;;;42.40;26.40;;;;;;;0.25;100.00;98172.70;180523;1265;59357;-81
2023/11/28 04:38:45;;;;;;;41.50;27.00;;;;;;;0.30;100.00;98167.79;180424;1265;43794;-81
2023/11/28 04:42:46;;;;;;;50.20;26.00;;;;;;;0.25;100.00;98154.50;180356;1265;44180;-80
2023/11/28 04:46:49;;;;;;;37.90;23.40;;;;;;;0.28;100.00;98153.80;180299;1265;44218;-81
2023/11/28 04:50:51;;;;;;;31.70;22.70;;;;;;;0.28;100.00;98156.19;180396;1264;44053;-81
2023/11/28 04:54:52;;;;;;;37.30;22.20;;;;;;;0.28;100.00;98153.64;180475;1265;58002;-81
2023/11/28 04:58:54;;;;;;;39.30;24.00;;;;;;;0.28;100.00;98152.55;180260;1266;44258;-81
2023/11/28 05:02:56;;;;;;;38.60;22.30;;;;;;;0.29;100.00;98153.05;180554;1265;44188;-81
2023/11/28 05:06:58;;;;;;;38.20;22.30;;;;;;;0.26;100.00;98150.09;180426;1265;44179;-81
2023/11/28 05:11:05;;;;;;;38.00;23.30;;;;;;;0.30;100.00;98155.20;180558;1264;43967;-81
2023/11/28 05:15:07;;;;;;;31.80;23.50;;;;;;;0.34;100.00;98144.82;180496;1265;57904;-80
2023/11/28 05:19:09;;;;;;;38.00;22.00;;;;;;;0.35;100.00;98145.23;180498;1265;43921;-80
2023/11/28 05:23:11;;;;;;;32.90;22.80;;;;;;;0.37;100.00;98148.56;180452;1264;44204;-80
2023/11/28 05:27:13;;;;;;;38.30;25.50;;;;;;;0.38;100.00;98142.73;180355;1266;43769;-80
2023/11/28 05:31:15;;;;;;;28.20;20.10;;;;;;;0.38;100.00;98144.33;180526;1265;43863;-81
2023/11/28 05:35:16;;;;;;;39.80;25.00;;;;;;;0.36;100.00;98149.52;180520;1264;57934;-80
2023/11/28 05:39:18;;;;;;;33.80;20.90;;;;;;;0.38;100.00;98145.95;180357;1265;188684;-79
2023/11/28 05:43:20;;;;;;;34.30;20.90;;;;;;;0.35;100.00;98136.70;180533;1264;43958;-81
2023/11/28 05:47:22;;;;;;;30.20;21.70;;;;;;;0.34;100.00;98140.94;180413;1265;43747;-81
2023/11/28 05:51:24;;;;;;;38.40;25.20;;;;;;;0.35;100.00;98141.09;180359;1266;43878;-81
2023/11/28 05:55:25;;;;;;;32.60;21.40;;;;;;;0.35;100.00;98143.69;180522;1265;58153;-80
2023/11/28 05:59:27;;;;;;;29.50;18.60;;;;;;;0.38;100.00;98142.95;180367;1264;43923;-80
2023/11/28 06:03:29;;;;;;;37.40;25.10;;;;;;;0.42;100.00;98139.33;180550;1265;43730;-80
2023/11/28 06:07:31;;;;;;;27.00;19.40;;;;;;;0.48;100.00;98147.66;180393;1266;43746;-81
2023/11/28 06:11:33;;;;;;;28.70;21.10;;;;;;;0.56;100.00;98153.52;180516;1265;43882;-80
2023/11/28 06:15:35;;;;;;;28.50;20.20;;;;;;;0.58;100.00;98151.58;180478;1266;59531;-80
2023/11/28 06:19:37;;;;;;;32.20;21.70;;;;;;;0.63;100.00;98151.75;180480;1266;43904;-81
2023/11/28 06:23:39;;;;;;;44.90;25.60;;;;;;;0.65;100.00;98150.38;180403;1265;43770;-81
2023/11/28 06:27:42;;;;;;;43.70;22.80;;;;;;;0.72;100.00;98154.74;180369;1265;44288;-81
2023/11/28 06:31:44;;;;;;;29.00;19.10;;;;;;;0.83;100.00;98157.44;180290;1265;43932;-81
2023/11/28 06:35:46;;;;;;;30.00;18.50;;;;;;;0.92;100.00;98161.44;180287;1265;58476;-81
2023/11/28 06:39:48;;;;;;;29.00;17.50;;;;;;;0.98;100.00;98162.55;180261;1264;44118;-80
2023/11/28 06:43:51;;;;;;;27.10;18.20;;;;;;;1.06;100.00;98164.39;180308;1266;44099;-81
2023/11/28 06:47:52;;;;;;;34.10;20.40;;;;;;;1.13;100.00;98165.29;180490;1265;44144;-80
2023/11/28 06:51:54;;;;;;;29.30;18.60;;;;;;;1.20;100.00;98165.66;180411;1265;44109;-80
2023/11/28 06:55:56;;;;;;;27.60;17.40;;;;;;;1.22;100.00;98175.02;180447;1265;59283;-81
2023/11/28 06:59:58;;;;;;;29.90;18.00;;;;;;;1.24;100.00;98183.45;180302;1265;44152;-80
2023/11/28 07:04:00;;;;;;;27.30;17.00;;;;;;;1.30;100.00;98191.22;180409;1266;43997;-81
2023/11/28 07:08:01;;;;;;;24.50;14.60;;;;;;;1.31;100.00;98192.38;180388;1266;43957;-80
2023/11/28 07:12:04;;;;;;;22.60;16.20;;;;;;;1.27;100.00;98191.81;180592;1265;44184;-81
2023/11/28 07:16:06;;;;;;;25.20;18.50;;;;;;;1.22;100.00;98193.75;180615;1264;58315;-81
2023/11/28 07:20:09;;;;;;;25.70;16.60;;;;;;;1.15;100.00;98193.04;180612;1266;43801;-81
2023/11/28 07:24:12;;;;;;;22.00;15.30;;;;;;;1.13;100.00;98202.62;180615;1266;44091;-82
2023/11/28 07:28:15;;;;;;;25.60;16.70;;;;;;;1.09;100.00;98206.63;180416;1264;44113;-82
2023/11/28 07:32:19;;;;;;;19.20;15.40;;;;;;;1.01;100.00;98209.65;180469;1266;43802;-82
2023/11/28 07:36:21;;;;;;;16.90;14.10;;;;;;;0.95;100.00;98215.09;180421;1265;59441;-81
2023/11/28 07:40:25;;;;;;;15.00;12.30;;;;;;;0.94;100.00;98216.59;180310;1266;44104;-81
2023/11/28 07:44:29;;;;;;;23.10;12.60;;;;;;;0.93;100.00;98216.02;180530;1266;44194;-82
2023/11/28 07:48:31;;;;;;;22.60;15.00;;;;;;;0.84;100.00;98217.73;180258;1268;44066;-82
2023/11/28 07:52:34;;;;;;;17.20;13.00;;;;;;;0.82;100.00;98221.20;180460;1265;43881;-82
2023/11/28 07:56:37;;;;;;;21.80;12.30;;;;;;;0.75;100.00;98225.73;180353;1265;59318;-83
2023/11/28 08:00:40;;;;;;;21.50;14.00;;;;;;;0.70;100.00;98228.88;180196;1268;44200;-82
2023/11/28 08:04:41;;;;;;;24.40;13.10;;;;;;;0.63;100.00;98232.16;180246;1265;44106;-82
2023/11/28 08:08:43;;;;;;;16.90;11.40;;;;;;;0.57;100.00;98236.09;180525;1266;43891;-82
2023/11/28 08:12:45;;;;;;;18.80;12.20;;;;;;;0.53;100.00;98239.83;180540;1266;45623;-82
2023/11/28 08:16:47;;;;;;;18.80;12.20;;;;;;;0.51;100.00;98239.48;180496;1265;58223;-82
2023/11/28 08:20:50;;;;;;;23.20;14.50;;;;;;;0.45;100.00;98245.17;180324;1265;43789;-82
2023/11/28 08:24:52;;;;;;;19.70;14.30;;;;;;;0.43;100.00;98245.49;180446;1267;43856;-81
2023/11/28 08:28:55;;;;;;;24.30;14.80;;;;;;;0.43;100.00;98243.59;180534;1267;43994;-82
2023/11/28 08:32:56;;;;;;;22.80;16.10;;;;;;;0.40;100.00;98249.16;180609;1265;43826;-82
2023/11/28 08:36:58;;;;;;;26.90;17.10;;;;;;;0.39;100.00;98253.74;180534;1266;59985;-82
2023/11/28 08:41:03;;;;;;;25.40;17.20;;;;;;;0.39;100.00;98258.46;180536;1266;43946;-82
2023/11/28 08:45:05;;;;;;;20.80;16.10;;;;;;;0.39;100.00;98258.15;180326;1267;44218;-82
2023/11/28 08:49:07;;;;;;;30.90;17.10;;;;;;;0.39;100.00;98259.16;180398;1265;43745;-82
2023/11/28 08:53:33;;;;;;;32.80;18.80;;;;;;;0.42;100.00;98264.35;180489;1267;43862;-79
2023/11/28 08:57:35;;;;;;;27.90;16.10;;;;;;;0.44;100.00;98267.58;180319;1267;58332;-82
2023/11/28 09:01:37;;;;;;;24.20;17.40;;;;;;;0.46;100.00;98268.98;180271;1267;43843;-83
2023/11/28 09:05:39;;;;;;;25.80;16.70;;;;;;;0.45;100.00;98267.85;180251;1266;43777;-82
2023/11/28 09:09:41;;;;;;;33.60;19.70;;;;;;;0.40;100.00;98266.40;180397;1267;47674;-82
2023/11/28 09:13:43;;;;;;;30.60;19.40;;;;;;;0.37;100.00;98272.58;180382;1267;44169;-81
2023/11/28 09:17:45;;;;;;;32.40;20.90;;;;;;;0.30;100.00;98274.65;180418;1266;59497;-81
2023/11/28 09:21:47;;;;;;;27.30;18.40;;;;;;;0.27;100.00;98274.31;180218;1268;43737;-81
2023/11/28 09:25:48;;;;;;;34.90;21.80;;;;;;;0.26;100.00;98276.33;180153;1265;43833;-82
2023/11/28 09:30:01;;;;;;;28.50;17.70;;;;;;;0.34;100.00;98282.74;180372;1265;43815;-82
2023/11/28 09:34:03;;;;;;;28.40;19.30;;;;;;;0.36;100.00;98283.27;180277;1266;44559;-82
2023/11/28 09:38:05;;;;;;;30.70;17.20;;;;;;;0.32;100.00;98283.02;180350;1265;58095;-82
2023/11/28 09:42:12;;;;;;;33.20;20.20;;;;;;;0.32;100.00;98289.66;180100;1266;44032;-82
2023/11/28 09:46:16;;;;;;;30.10;19.30;;;;;;;0.35;100.00;98290.31;180279;1266;43771;-81
2023/11/28 09:50:24;;;;;;;28.60;18.80;;;;;;;0.38;100.00;98285.40;180174;1266;43865;-82
2023/11/28 09:54:29;;;;;;;30.90;19.80;;;;;;;0.43;100.00;98284.35;180292;1266;44337;-82
2023/11/28 09:58:32;;;;;;;30.30;17.80;;;;;;;0.40;100.00;98283.52;180436;1266;58505;-81
2023/11/28 10:02:34;;;;;;;27.70;18.30;;;;;;;0.34;100.00;98277.84;180105;1267;44104;-81
2023/11/28 10:06:43;;;;;;;30.70;18.70;;;;;;;0.26;100.00;98275.80;180220;1265;43883;-81
2023/11/28 10:10:45;;;;;;;23.90;17.20;;;;;;;0.27;100.00;98272.41;180265;1266;43967;-81
2023/11/28 10:14:47;;;;;;;24.90;16.20;;;;;;;0.26;100.00;98276.64;180227;1268;43863;-81
2023/11/28 10:18:49;;;;;;;32.30;19.10;;;;;;;0.30;100.00;98281.60;180292;1265;59552;-81
2023/11/28 10:22:52;;;;;;;32.00;17.40;;;;;;;0.37;100.00;98279.52;180235;1267;43806;-81
2023/11/28 10:26:55;;;;;;;33.90;19.00;;;;;;;0.39;100.00;98281.85;180322;1265;43897;-82
2023/11/28 10:30:57;;;;;;;30.30;18.00;;;;;;;0.40;100.00;98284.56;180314;1265;43977;-81
2023/11/28 10:34:59;;;;;;;31.90;19.30;;;;;;;0.40;100.00;98286.45;180327;1265;44095;-81
2023/11/28 10:39:01;;;;;;;31.70;19.80;;;;;;;0.44;100.00;98284.98;180264;1265;58005;-81
2023/11/28 10:43:06;;;;;;;29.70;17.60;;;;;;;0.48;100.00;98282.81;180237;1266;43984;-81
2023/11/28 10:47:10;;;;;;;25.80;15.80;;;;;;;0.59;100.00;98286.21;180210;1265;43843;-81
2023/11/28 10:51:13;;;;;;;23.70;15.50;;;;;;;0.70;100.00;98289.42;180258;1265;43951;-82
2023/11/28 10:55:20;;;;;;;26.90;17.10;;;;;;;0.79;99.90;98292.64;180290;1265;43958;-81
2023/11/28 10:59:43;;;;;;;27.30;17.20;;;;;;;0.87;99.20;98295.33;180241;1266;58493;-81
2023/11/28 11:03:46;;;;;;;23.00;14.80;;;;;;;0.93;98.49;98301.73;180360;1265;43951;-81
2023/11/28 11:07:50;;;;;;;24.90;15.60;;;;;;;1.00;98.67;98305.40;180252;1265;43802;-81
2023/11/28 11:11:55;;;;;;;29.90;16.40;;;;;;;1.04;98.65;98307.33;180370;1265;44355;-79
2023/11/28 11:16:11;;;;;;;23.00;16.10;;;;;;;1.11;98.67;98306.52;180257;1265;43787;-81
2023/11/28 11:20:15;;;;;;;27.20;13.80;;;;;;;1.20;98.28;98317.34;180279;1266;59718;-81
2023/11/28 11:24:21;;;;;;;25.80;17.00;;;;;;;1.30;98.26;98311.92;180339;1265;43898;-81
2023/11/28 11:28:22;;;;;;;26.20;14.10;;;;;;;1.34;97.69;98318.60;180075;1265;44275;-81
2023/11/28 11:32:24;;;;;;;27.90;16.90;;;;;;;1.39;96.97;98321.14;180148;1265;44068;-80
2023/11/28 11:36:27;;;;;;;30.70;18.70;;;;;;;1.49;96.45;98325.17;180281;1264;43908;-81
2023/11/28 11:40:30;;;;;;;22.20;14.70;;;;;;;1.63;95.83;98325.51;180151;1265;59574;-81
2023/11/28 11:44:31;;;;;;;22.20;15.00;;;;;;;1.73;94.62;98326.81;180291;1265;43958;-81
2023/11/28 11:48:34;;;;;;;29.20;17.00;;;;;;;1.80;93.04;98325.10;180319;1266;43903;-82
2023/11/28 11:52:40;;;;;;;23.90;18.30;;;;;;;1.87;92.83;98328.92;180207;1265;43885;-80
2023/11/28 11:56:43;;;;;;;25.30;14.60;;;;;;;1.89;91.90;98333.84;180416;1265;43797;-81
2023/11/28 12:00:47;;;;;;;28.40;16.00;;;;;;;1.91;90.41;98339.32;180361;1265;58293;-81
2023/11/28 12:04:48;;;;;;;26.30;16.50;;;;;;;1.93;90.09;98341.58;180207;1265;43792;-81
2023/11/28 12:08:50;;;;;;;23.80;14.40;;;;;;;1.93;89.05;98344.89;180423;1267;43781;-79
2023/11/28 12:12:52;;;;;;;28.10;17.30;;;;;;;1.90;88.26;98352.29;180376;1265;43943;-81
2023/11/28 12:16:54;;;;;;;31.20;18.50;;;;;;;1.96;88.33;98354.11;180196;1264;44552;-81
2023/11/28 12:20:57;;;;;;;22.30;16.00;;;;;;;1.95;86.93;98359.55;180214;1265;58063;-82
2023/11/28 12:25:01;;;;;;;21.80;14.00;;;;;;;1.98;87.50;98361.67;180371;1265;44032;-81
2023/11/28 12:29:05;;;;;;;25.20;15.10;;;;;;;2.08;87.72;98364.58;180155;1265;44084;-81
2023/11/28 12:33:07;;;;;;;24.00;16.50;;;;;;;2.15;87.56;98371.21;180238;1265;43850;-81
2023/11/28 12:37:10;;;;;;;21.80;15.50;;;;;;;2.15;87.13;98377.60;180286;1265;43989;-81
2023/11/28 12:41:12;;;;;;;22.50;13.80;;;;;;;2.15;86.48;98384.32;180275;1265;60113;-81
2023/11/28 12:45:27;;;;;;;23.70;16.70;;;;;;;2.09;85.51;98389.27;180224;1265;43925;-82
2023/11/28 13:08:31;;;;;;;25.60;16.50;;;;;;;2.21;81.89;98409.21;171498;1295;581495;-77
2023/11/28 13:12:37;;;;;;;25.80;15.90;;;;;;;2.10;80.52;98425.45;175695;1262;347696;-80
2023/11/28 13:16:40;;;;;;;30.20;16.60;;;;;;;2.03;81.26;98432.23;175524;1263;46118;-79
2023/11/28 13:20:51;;;;;;;26.50;15.80;;;;;;;1.92;81.27;98443.02;175706;1263;46095;-81
2023/11/28 13:24:55;;;;;;;30.40;16.90;;;;;;;1.72;80.65;98447.51;176060;1262;46063;-80
2023/11/28 13:28:59;;;;;;;23.80;16.50;;;;;;;1.53;81.94;98448.71;175884;1263;46072;-79
2023/11/28 13:33:02;;;;;;;30.30;17.00;;;;;;;1.43;82.92;98450.50;175612;1266;59563;-79
2023/11/28 13:37:06;;;;;;;33.40;19.10;;;;;;;1.38;83.64;98459.08;177256;1263;46044;-81
2023/11/28 13:41:15;;;;;;;27.80;15.50;;;;;;;1.30;83.34;98462.08;175703;1263;46217;-81
2023/11/28 13:45:19;;;;;;;35.00;16.80;;;;;;;1.21;84.27;98463.24;177071;1263;47424;-80
2023/11/28 13:49:22;;;;;;;31.00;19.40;;;;;;;1.13;84.22;98472.20;176989;1262;46068;-80
2023/11/28 13:53:26;;;;;;;31.90;19.60;;;;;;;1.04;84.34;98488.52;175846;1263;59413;-80
2023/11/28 13:57:30;;;;;;;40.70;18.90;;;;;;;0.97;84.74;98496.67;177417;1257;46025;-80
2023/11/28 14:01:35;;;;;;;;;;;;;;;0.96;85.01;98503.38;176979;1257;46124;-79
2023/11/28 14:05:40;;;;;;;28.40;18.60;;;;;;;0.93;85.11;98511.30;176528;1251;45903;-80
2023/11/28 14:09:44;;;;;;;35.50;20.20;;;;;;;0.86;85.59;98514.23;179774;1258;45966;-81
2023/11/28 14:13:47;;;;;;;34.50;20.00;;;;;;;0.85;86.17;98523.91;178437;1257;60162;-81
2023/11/28 14:17:51;;;;;;;36.60;19.90;;;;;;;0.83;85.75;98530.49;178152;1257;44809;-81
2023/11/28 14:21:54;;;;;;;43.20;22.30;;;;;;;0.76;85.86;98539.74;178131;1256;46076;-79
2023/11/28 14:25:57;;;;;;;37.90;20.20;;;;;;;0.69;86.13;98540.70;178331;1261;46088;-81
2023/11/28 14:30:02;;;;;;;39.30;20.30;;;;;;;0.63;86.19;98546.20;178290;1257;46515;-82
2023/11/28 14:34:05;;;;;;;36.00;19.90;;;;;;;0.53;86.95;98553.98;178578;1257;58438;-79
2023/11/28 14:38:10;;;;;;;35.30;20.00;;;;;;;0.48;87.02;98559.45;178664;1257;46108;-83
2023/11/28 14:42:13;;;;;;;37.20;22.00;;;;;;;0.43;87.78;98567.45;179051;1257;45957;-83
2023/11/28 14:46:16;;;;;;;34.80;21.50;;;;;;;0.41;87.82;98573.66;178788;1257;46169;-82
2023/11/28 14:50:21;;;;;;;34.60;21.80;;;;;;;0.38;88.16;98577.65;180246;1257;44551;-83
2023/11/28 14:54:24;;;;;;;31.00;18.50;;;;;;;0.37;88.06;98585.58;178901;1258;60791;-83
2023/11/28 14:58:28;;;;;;;35.90;20.90;;;;;;;0.36;88.29;98589.52;178078;1260;46098;-83
2023/11/28 15:02:31;;;;;;;36.10;23.90;;;;;;;0.40;89.25;98592.89;177862;1258;44184;-84
2023/11/28 15:06:35;;;;;;;47.00;24.10;;;;;;;0.38;92.28;98595.14;177994;1257;45962;-84
2023/11/28 15:10:38;;;;;;;36.30;22.20;;;;;;;0.29;94.37;98608.63;178827;1261;46141;-89
2023/11/28 15:14:42;;;;;;;41.50;25.00;;;;;;;0.19;95.61;98618.35;179401;1257;60417;-83
2023/11/28 15:18:52;;;;;;;50.60;24.80;;;;;;;0.13;96.42;98627.25;179541;1257;45809;-82
2023/11/28 15:22:55;;;;;;;40.80;21.80;;;;;;;0.06;97.48;98636.63;178791;1259;45498;-81
2023/11/28 15:26:59;;;;;;;45.50;26.20;;;;;;;-0.01;98.09;98649.45;178600;1259;46837;-82
2023/11/28 15:31:02;;;;;;;47.50;25.90;;;;;;;-0.01;98.04;98660.77;178402;1258;50828;-81
2023/11/28 15:35:07;;;;;;;54.40;30.70;;;;;;;-0.00;98.15;98668.05;178765;1260;59180;-83
2023/11/28 15:39:18;;;;;;;57.20;33.40;;;;;;;-0.04;98.41;98676.66;179454;1258;46130;-83
2023/11/28 15:43:22;;;;;;;65.30;32.50;;;;;;;-0.05;98.29;98680.02;179952;1259;45563;-82
2023/11/28 15:47:25;;;;;;;56.00;32.10;;;;;;;-0.05;97.86;98690.96;178615;1258;46095;-83
2023/11/28 15:51:30;;;;;;;52.60;30.40;;;;;;;-0.07;98.04;98691.45;178756;1259;46218;-82
2023/11/28 15:55:42;;;;;;;53.30;29.40;;;;;;;-0.10;98.48;98699.34;179074;1259;59562;-81
2023/11/28 15:59:46;;;;;;;50.20;28.80;;;;;;;-0.13;98.62;98704.91;179078;1259;44060;-82
2023/11/28 16:03:51;;;;;;;55.30;30.60;;;;;;;-0.12;98.44;98715.52;179493;1259;45125;-83
2023/11/28 16:07:54;;;;;;;46.70;25.60;;;;;;;-0.14;98.25;98724.46;178183;1259;46032;-80
2023/11/28 16:11:58;;;;;;;42.70;25.80;;;;;;;-0.14;98.74;98729.90;178952;1259;44196;-82
2023/11/28 16:16:01;;;;;;;51.70;26.30;;;;;;;-0.10;99.36;98732.11;178141;1260;60308;-79
2023/11/28 16:20:05;;;;;;;45.30;26.10;;;;;;;-0.13;99.70;98739.58;177647;1262;46115;-82
2023/11/28 16:24:09;;;;;;;48.00;27.00;;;;;;;-0.23;100.00;98742.98;178470;1259;45911;-80
2023/11/28 16:28:12;;;;;;;39.20;24.20;;;;;;;-0.28;100.00;98744.89;177745;1259;46079;-82
2023/11/28 16:32:16;;;;;;;48.40;26.80;;;;;;;-0.33;100.00;98752.64;179148;1259;46117;-84
2023/11/28 16:36:19;;;;;;;49.80;27.60;;;;;;;-0.36;100.00;98763.48;178561;1257;59564;-78
2023/11/28 16:40:22;;;;;;;38.20;23.30;;;;;;;-0.40;100.00;98771.73;178618;1257;45988;-81
2023/11/28 16:44:27;;;;;;;44.80;26.50;;;;;;;-0.42;100.00;98779.65;178292;1257;46114;-82
2023/11/28 16:48:31;;;;;;;38.20;23.70;;;;;;;-0.46;100.00;98789.81;178250;1259;46117;-83
2023/11/28 16:52:34;;;;;;;40.80;24.60;;;;;;;-0.48;100.00;98795.04;179586;1257;46148;-83
2023/11/28 16:56:39;;;;;;;43.40;27.90;;;;;;;-0.54;100.00;98801.14;178664;1258;59488;-80
2023/11/28 17:00:42;;;;;;;37.80;21.30;;;;;;;-0.60;100.00;98812.92;178015;1259;45894;-83
2023/11/28 17:04:45;;;;;;;43.60;24.60;;;;;;;-0.62;100.00;98823.69;179022;1258;46112;-80
2023/11/28 17:08:49;;;;;;;39.50;23.20;;;;;;;-0.60;100.00;98828.60;179110;1258;45962;-81
2023/11/28 17:12:53;;;;;;;31.20;22.40;;;;;;;-0.59;100.00;98840.92;179507;1257;44122;-81
2023/11/28 17:17:05;;;;;;;34.30;21.30;;;;;;;-0.60;100.00;98849.20;180346;1257;57644;-81
2023/11/28 17:21:17;;;;;;;44.70;23.80;;;;;;;-0.69;100.00;98851.64;179400;1257;46106;-82
2023/11/28 17:25:20;;;;;;;47.20;25.00;;;;;;;-0.75;100.00;98859.81;178188;1256;45984;-81
2023/11/28 17:29:24;;;;;;;54.10;29.40;;;;;;;-0.75;100.00;98872.15;177707;1257;46194;-83
2023/11/28 17:33:27;;;;;;;48.20;25.40;;;;;;;-0.71;100.00;98875.59;178348;1256;44842;-81
2023/11/28 17:37:30;;;;;;;44.30;24.90;;;;;;;-0.75;100.00;98883.46;177942;1256;58228;-83
2023/11/28 17:41:34;;;;;;;45.00;26.60;;;;;;;-0.77;100.00;98888.30;178580;1257;46028;-84
2023/11/28 17:45:37;;;;;;;43.40;28.30;;;;;;;-0.77;100.00;98898.58;178063;1257;45983;-83
2023/11/28 17:49:40;;;;;;;40.40;23.70;;;;;;;-0.77;100.00;98900.49;178712;1256;46031;-85
2023/11/28 17:53:44;;;;;;;48.10;25.20;;;;;;;-0.83;100.00;98901.99;180060;1256;46096;-82
2023/11/28 17:57:47;;;;;;;46.60;27.60;;;;;;;-0.85;100.00;98906.51;179182;1256;59999;-84
2023/11/28 18:01:50;;;;;;;45.70;24.80;;;;;;;-0.85;100.00;98908.91;178616;1257;46103;-82
2023/11/28 18:05:53;;;;;;;43.70;26.60;;;;;;;-0.87;100.00;98918.27;178614;1256;45927;-80
2023/11/28 18:09:56;;;;;;;55.40;29.00;;;;;;;-0.85;100.00;98925.31;178905;1256;45105;-81
2023/11/28 18:14:00;;;;;;;42.00;24.40;;;;;;;-0.85;100.00;98928.75;178219;1256;46025;-83
2023/11/28 18:18:03;;;;;;;47.70;28.40;;;;;;;-0.91;100.00;98934.86;178748;1258;58218;-81
2023/11/28 18:22:07;;;;;;;49.20;28.60;;;;;;;-0.91;100.00;98934.83;178893;1257;44662;-81
2023/11/28 18:26:11;;;;;;;46.60;26.50;;;;;;;-0.94;100.00;98949.81;178231;1259;46053;-81
2023/11/28 18:30:14;;;;;;;54.30;30.00;;;;;;;-1.02;100.00;98955.80;180296;1256;43960;-84
2023/11/28 18:34:18;;;;;;;71.60;40.80;;;;;;;-1.13;100.00;98960.74;180467;1256;43850;-80
2023/11/28 18:38:21;;;;;;;57.80;27.70;;;;;;;-1.23;100.00;98967.77;179676;1256;57626;-83
2023/11/28 18:42:24;;;;;;;48.70;28.80;;;;;;;-1.28;100.00;98969.25;180541;1256;44213;-84